sensor_id;sensor_type;location;lat;lon;timestamp;temperature;humidity
14995;DHT22;7593;49.006;8.372;2023-06-26T00:01:54;22.10;94.90
14995;DHT22;7593;49.006;8.372;2023-06-26T00:04:21;22.00;94.90
14995;DHT22;7593;49.006;8.372;2023-06-26T00:06:48;22.10;95.10
14995;DHT22;7593;49.006;8.372;2023-06-26T00:09:14;22.00;95.30
14995;DHT22;7593;49.006;8.372;2023-06-26T00:11:41;22.00;95.40
14995;DHT22;7593;49.006;8.372;2023-06-26T00:14:09;21.90;95.60
14995;DHT22;7593;49.006;8.372;2023-06-26T00:16:36;22.00;95.60
14995;DHT22;7593;49.006;8.372;2023-06-26T00:19:03;21.90;95.60
14995;DHT22;7593;49.006;8.372;2023-06-26T00:21:29;21.90;95.90
14995;DHT22;7593;49.006;8.372;2023-06-26T00:23:56;21.90;96.10
14995;DHT22;7593;49.006;8.372;2023-06-26T00:26:23;21.80;96.20
14995;DHT22;7593;49.006;8.372;2023-06-26T00:28:50;21.80;96.30
14995;DHT22;7593;49.006;8.372;2023-06-26T00:31:18;21.70;96.40
14995;DHT22;7593;49.006;8.372;2023-06-26T00:33:48;21.60;96.40
14995;DHT22;7593;49.006;8.372;2023-06-26T00:36:15;21.60;96.40
14995;DHT22;7593;49.006;8.372;2023-06-26T00:38:41;21.50;96.50
14995;DHT22;7593;49.006;8.372;2023-06-26T00:41:08;21.50;96.70
14995;DHT22;7593;49.006;8.372;2023-06-26T00:43:38;21.40;97.00
14995;DHT22;7593;49.006;8.372;2023-06-26T00:46:10;21.40;97.40
14995;DHT22;7593;49.006;8.372;2023-06-26T00:48:39;21.40;97.50
14995;DHT22;7593;49.006;8.372;2023-06-26T00:51:07;21.30;97.60
14995;DHT22;7593;49.006;8.372;2023-06-26T00:53:34;21.20;97.80
14995;DHT22;7593;49.006;8.372;2023-06-26T00:56:02;21.10;97.90
14995;DHT22;7593;49.006;8.372;2023-06-26T00:58:29;21.00;97.90
14995;DHT22;7593;49.006;8.372;2023-06-26T01:00:56;20.90;98.20
14995;DHT22;7593;49.006;8.372;2023-06-26T01:03:25;20.90;98.50
14995;DHT22;7593;49.006;8.372;2023-06-26T01:05:54;20.90;99.10
14995;DHT22;7593;49.006;8.372;2023-06-26T01:08:23;20.90;99.30
14995;DHT22;7593;49.006;8.372;2023-06-26T01:10:50;20.90;99.40
14995;DHT22;7593;49.006;8.372;2023-06-26T01:13:17;20.90;99.60
14995;DHT22;7593;49.006;8.372;2023-06-26T01:15:45;20.80;99.60
14995;DHT22;7593;49.006;8.372;2023-06-26T01:18:12;20.80;99.60
14995;DHT22;7593;49.006;8.372;2023-06-26T01:20:41;20.80;99.80
14995;DHT22;7593;49.006;8.372;2023-06-26T01:23:15;20.70;99.50
14995;DHT22;7593;49.006;8.372;2023-06-26T01:25:56;20.70;99.40
14995;DHT22;7593;49.006;8.372;2023-06-26T01:28:29;20.70;99.00
14995;DHT22;7593;49.006;8.372;2023-06-26T01:30:56;20.60;98.90
14995;DHT22;7593;49.006;8.372;2023-06-26T01:33:24;20.50;98.80
14995;DHT22;7593;49.006;8.372;2023-06-26T01:35:51;20.40;98.70
14995;DHT22;7593;49.006;8.372;2023-06-26T01:38:19;20.30;98.70
14995;DHT22;7593;49.006;8.372;2023-06-26T01:40:46;20.30;98.90
14995;DHT22;7593;49.006;8.372;2023-06-26T01:43:18;20.30;99.20
14995;DHT22;7593;49.006;8.372;2023-06-26T01:45:51;20.30;99.60
14995;DHT22;7593;49.006;8.372;2023-06-26T01:48:23;20.30;99.60
14995;DHT22;7593;49.006;8.372;2023-06-26T01:50:52;20.20;98.90
14995;DHT22;7593;49.006;8.372;2023-06-26T01:53:23;20.10;99.00
14995;DHT22;7593;49.006;8.372;2023-06-26T01:55:54;20.00;99.10
14995;DHT22;7593;49.006;8.372;2023-06-26T01:58:24;19.90;99.30
14995;DHT22;7593;49.006;8.372;2023-06-26T02:00:53;19.80;99.30
14995;DHT22;7593;49.006;8.372;2023-06-26T02:03:20;19.80;99.50
14995;DHT22;7593;49.006;8.372;2023-06-26T02:05:49;19.80;99.90
14995;DHT22;7593;49.006;8.372;2023-06-26T02:08:16;19.80;99.90
14995;DHT22;7593;49.006;8.372;2023-06-26T02:10:43;19.90;99.90
14995;DHT22;7593;49.006;8.372;2023-06-26T02:13:10;19.90;99.90
14995;DHT22;7593;49.006;8.372;2023-06-26T02:15:36;19.90;99.90
14995;DHT22;7593;49.006;8.372;2023-06-26T02:18:04;19.90;99.90
14995;DHT22;7593;49.006;8.372;2023-06-26T02:20:31;20.00;99.90
14995;DHT22;7593;49.006;8.372;2023-06-26T02:22:58;20.00;99.90
14995;DHT22;7593;49.006;8.372;2023-06-26T02:25:25;19.90;99.90
14995;DHT22;7593;49.006;8.372;2023-06-26T02:27:52;20.00;99.90
14995;DHT22;7593;49.006;8.372;2023-06-26T02:30:19;19.90;99.90
14995;DHT22;7593;49.006;8.372;2023-06-26T02:32:45;19.90;99.90
14995;DHT22;7593;49.006;8.372;2023-06-26T02:35:14;19.80;99.90
14995;DHT22;7593;49.006;8.372;2023-06-26T02:37:40;19.80;99.90
14995;DHT22;7593;49.006;8.372;2023-06-26T02:40:08;19.80;99.90
14995;DHT22;7593;49.006;8.372;2023-06-26T02:42:35;19.70;99.90
14995;DHT22;7593;49.006;8.372;2023-06-26T02:45:02;19.70;99.90
14995;DHT22;7593;49.006;8.372;2023-06-26T02:47:29;19.60;99.90
14995;DHT22;7593;49.006;8.372;2023-06-26T02:49:56;19.60;99.90
14995;DHT22;7593;49.006;8.372;2023-06-26T02:52:24;19.50;99.90
14995;DHT22;7593;49.006;8.372;2023-06-26T02:54:50;19.50;99.90
14995;DHT22;7593;49.006;8.372;2023-06-26T02:57:17;19.50;99.90
14995;DHT22;7593;49.006;8.372;2023-06-26T02:59:44;19.50;99.90
14995;DHT22;7593;49.006;8.372;2023-06-26T03:02:11;19.50;99.90
14995;DHT22;7593;49.006;8.372;2023-06-26T03:04:37;19.40;99.90
14995;DHT22;7593;49.006;8.372;2023-06-26T03:07:04;19.40;99.90
14995;DHT22;7593;49.006;8.372;2023-06-26T03:09:32;19.40;99.90
14995;DHT22;7593;49.006;8.372;2023-06-26T03:11:59;19.40;99.90
14995;DHT22;7593;49.006;8.372;2023-06-26T03:14:26;19.40;99.90
14995;DHT22;7593;49.006;8.372;2023-06-26T03:16:53;19.40;99.90
14995;DHT22;7593;49.006;8.372;2023-06-26T03:19:23;19.40;99.90
14995;DHT22;7593;49.006;8.372;2023-06-26T03:21:50;19.40;99.90
14995;DHT22;7593;49.006;8.372;2023-06-26T03:24:16;19.40;99.90
14995;DHT22;7593;49.006;8.372;2023-06-26T03:26:44;19.40;99.90
14995;DHT22;7593;49.006;8.372;2023-06-26T03:29:11;19.30;99.90
14995;DHT22;7593;49.006;8.372;2023-06-26T03:31:38;19.30;99.90
14995;DHT22;7593;49.006;8.372;2023-06-26T03:34:05;19.30;99.90
14995;DHT22;7593;49.006;8.372;2023-06-26T03:36:31;19.30;99.90
14995;DHT22;7593;49.006;8.372;2023-06-26T03:38:58;19.30;99.90
14995;DHT22;7593;49.006;8.372;2023-06-26T03:41:26;19.20;99.90
14995;DHT22;7593;49.006;8.372;2023-06-26T03:43:55;19.20;99.90
14995;DHT22;7593;49.006;8.372;2023-06-26T03:46:23;19.20;99.90
14995;DHT22;7593;49.006;8.372;2023-06-26T03:48:50;19.20;99.90
14995;DHT22;7593;49.006;8.372;2023-06-26T03:51:16;19.20;99.90
14995;DHT22;7593;49.006;8.372;2023-06-26T03:53:43;19.10;99.90
14995;DHT22;7593;49.006;8.372;2023-06-26T03:56:10;19.10;99.90
14995;DHT22;7593;49.006;8.372;2023-06-26T03:58:36;19.10;99.90
14995;DHT22;7593;49.006;8.372;2023-06-26T04:01:04;19.00;99.90
14995;DHT22;7593;49.006;8.372;2023-06-26T04:03:32;19.00;99.90
14995;DHT22;7593;49.006;8.372;2023-06-26T04:05:59;19.00;99.90
14995;DHT22;7593;49.006;8.372;2023-06-26T04:08:26;19.00;99.90
14995;DHT22;7593;49.006;8.372;2023-06-26T04:10:53;19.10;99.90
14995;DHT22;7593;49.006;8.372;2023-06-26T04:13:20;19.10;99.90
14995;DHT22;7593;49.006;8.372;2023-06-26T04:15:47;19.20;99.90
14995;DHT22;7593;49.006;8.372;2023-06-26T04:18:15;19.20;99.90
14995;DHT22;7593;49.006;8.372;2023-06-26T04:21:06;19.20;99.90
14995;DHT22;7593;49.006;8.372;2023-06-26T04:23:34;19.20;99.90
14995;DHT22;7593;49.006;8.372;2023-06-26T04:26:01;19.20;99.90
14995;DHT22;7593;49.006;8.372;2023-06-26T04:28:30;19.20;99.90
14995;DHT22;7593;49.006;8.372;2023-06-26T04:30:57;19.30;99.90
14995;DHT22;7593;49.006;8.372;2023-06-26T04:33:25;19.30;99.90
14995;DHT22;7593;49.006;8.372;2023-06-26T04:35:52;19.30;99.90
14995;DHT22;7593;49.006;8.372;2023-06-26T04:38:19;19.40;99.90
14995;DHT22;7593;49.006;8.372;2023-06-26T04:40:46;19.40;99.90
14995;DHT22;7593;49.006;8.372;2023-06-26T04:43:13;19.50;99.90
14995;DHT22;7593;49.006;8.372;2023-06-26T04:45:39;19.50;99.90
14995;DHT22;7593;49.006;8.372;2023-06-26T04:48:06;19.40;99.90
14995;DHT22;7593;49.006;8.372;2023-06-26T04:50:35;19.40;99.90
14995;DHT22;7593;49.006;8.372;2023-06-26T04:53:02;19.40;99.90
14995;DHT22;7593;49.006;8.372;2023-06-26T04:55:29;19.40;99.90
14995;DHT22;7593;49.006;8.372;2023-06-26T04:57:56;19.50;99.90
14995;DHT22;7593;49.006;8.372;2023-06-26T05:00:22;19.50;99.90
14995;DHT22;7593;49.006;8.372;2023-06-26T05:02:50;19.60;99.90
14995;DHT22;7593;49.006;8.372;2023-06-26T05:05:24;19.60;99.90
14995;DHT22;7593;49.006;8.372;2023-06-26T05:07:53;19.70;99.90
14995;DHT22;7593;49.006;8.372;2023-06-26T05:10:20;19.80;99.90
14995;DHT22;7593;49.006;8.372;2023-06-26T05:12:46;19.90;99.90
14995;DHT22;7593;49.006;8.372;2023-06-26T05:15:13;20.00;99.90
14995;DHT22;7593;49.006;8.372;2023-06-26T05:17:40;20.10;99.90
14995;DHT22;7593;49.006;8.372;2023-06-26T05:20:08;20.20;99.90
14995;DHT22;7593;49.006;8.372;2023-06-26T05:22:35;20.30;99.90
14995;DHT22;7593;49.006;8.372;2023-06-26T05:25:08;20.30;99.90
14995;DHT22;7593;49.006;8.372;2023-06-26T05:27:35;20.40;99.90
14995;DHT22;7593;49.006;8.372;2023-06-26T05:30:03;20.50;99.90
14995;DHT22;7593;49.006;8.372;2023-06-26T05:32:30;20.50;99.90
14995;DHT22;7593;49.006;8.372;2023-06-26T05:35:00;20.60;99.90
14995;DHT22;7593;49.006;8.372;2023-06-26T05:37:28;20.60;99.90
14995;DHT22;7593;49.006;8.372;2023-06-26T05:39:55;20.60;99.90
14995;DHT22;7593;49.006;8.372;2023-06-26T05:42:24;20.70;99.90
14995;DHT22;7593;49.006;8.372;2023-06-26T05:44:51;20.80;99.90
14995;DHT22;7593;49.006;8.372;2023-06-26T05:47:17;20.80;99.90
14995;DHT22;7593;49.006;8.372;2023-06-26T05:49:44;20.90;99.90
14995;DHT22;7593;49.006;8.372;2023-06-26T05:52:12;21.00;99.90
14995;DHT22;7593;49.006;8.372;2023-06-26T05:54:39;21.00;99.90
14995;DHT22;7593;49.006;8.372;2023-06-26T05:57:06;21.10;99.90
14995;DHT22;7593;49.006;8.372;2023-06-26T05:59:37;21.10;99.90
14995;DHT22;7593;49.006;8.372;2023-06-26T06:02:06;21.20;99.90
14995;DHT22;7593;49.006;8.372;2023-06-26T06:04:33;21.30;99.90
14995;DHT22;7593;49.006;8.372;2023-06-26T06:07:00;21.40;99.90
14995;DHT22;7593;49.006;8.372;2023-06-26T06:09:27;21.50;99.90
14995;DHT22;7593;49.006;8.372;2023-06-26T06:11:53;21.60;99.90
14995;DHT22;7593;49.006;8.372;2023-06-26T06:14:20;21.70;99.90
14995;DHT22;7593;49.006;8.372;2023-06-26T06:16:48;21.80;99.90
14995;DHT22;7593;49.006;8.372;2023-06-26T06:19:15;21.90;99.90
14995;DHT22;7593;49.006;8.372;2023-06-26T06:21:42;22.00;99.90
14995;DHT22;7593;49.006;8.372;2023-06-26T06:24:09;22.10;99.90
14995;DHT22;7593;49.006;8.372;2023-06-26T06:26:36;22.10;99.90
14995;DHT22;7593;49.006;8.372;2023-06-26T06:29:02;22.20;99.90
14995;DHT22;7593;49.006;8.372;2023-06-26T06:31:29;22.30;99.90
14995;DHT22;7593;49.006;8.372;2023-06-26T06:33:57;22.50;99.90
14995;DHT22;7593;49.006;8.372;2023-06-26T06:36:24;22.60;99.90
14995;DHT22;7593;49.006;8.372;2023-06-26T06:38:51;22.90;99.90
14995;DHT22;7593;49.006;8.372;2023-06-26T06:41:18;23.20;99.90
14995;DHT22;7593;49.006;8.372;2023-06-26T06:43:45;23.50;99.90
14995;DHT22;7593;49.006;8.372;2023-06-26T06:46:12;23.80;99.80
14995;DHT22;7593;49.006;8.372;2023-06-26T06:48:39;24.10;99.60
14995;DHT22;7593;49.006;8.372;2023-06-26T06:51:07;24.40;99.10
14995;DHT22;7593;49.006;8.372;2023-06-26T06:53:34;24.70;98.20
14995;DHT22;7593;49.006;8.372;2023-06-26T06:56:01;24.90;97.90
14995;DHT22;7593;49.006;8.372;2023-06-26T06:58:27;25.10;97.30
14995;DHT22;7593;49.006;8.372;2023-06-26T07:00:54;25.20;97.00
14995;DHT22;7593;49.006;8.372;2023-06-26T07:03:21;25.40;96.90
14995;DHT22;7593;49.006;8.372;2023-06-26T07:05:48;25.50;96.70
14995;DHT22;7593;49.006;8.372;2023-06-26T07:08:16;25.70;96.50
14995;DHT22;7593;49.006;8.372;2023-06-26T07:10:43;25.90;96.00
14995;DHT22;7593;49.006;8.372;2023-06-26T07:13:09;26.20;95.70
14995;DHT22;7593;49.006;8.372;2023-06-26T07:15:36;26.40;95.20
14995;DHT22;7593;49.006;8.372;2023-06-26T07:18:03;26.40;94.70
14995;DHT22;7593;49.006;8.372;2023-06-26T07:20:29;26.60;94.30
14995;DHT22;7593;49.006;8.372;2023-06-26T07:22:56;26.60;94.00
14995;DHT22;7593;49.006;8.372;2023-06-26T07:25:24;26.80;93.90
14995;DHT22;7593;49.006;8.372;2023-06-26T07:27:51;26.90;93.50
14995;DHT22;7593;49.006;8.372;2023-06-26T07:30:18;26.90;92.70
14995;DHT22;7593;49.006;8.372;2023-06-26T07:32:45;27.00;92.70
14995;DHT22;7593;49.006;8.372;2023-06-26T07:35:11;27.00;92.40
14995;DHT22;7593;49.006;8.372;2023-06-26T07:37:38;27.20;92.10
14995;DHT22;7593;49.006;8.372;2023-06-26T07:40:07;27.20;91.80
14995;DHT22;7593;49.006;8.372;2023-06-26T07:42:35;27.40;91.80
14995;DHT22;7593;49.006;8.372;2023-06-26T07:45:02;27.40;91.60
14995;DHT22;7593;49.006;8.372;2023-06-26T07:47:35;27.40;90.90
14995;DHT22;7593;49.006;8.372;2023-06-26T07:50:02;27.50;90.80
14995;DHT22;7593;49.006;8.372;2023-06-26T07:52:28;27.60;91.00
14995;DHT22;7593;49.006;8.372;2023-06-26T07:54:56;27.60;91.10
14995;DHT22;7593;49.006;8.372;2023-06-26T07:57:22;27.70;91.10
14995;DHT22;7593;49.006;8.372;2023-06-26T07:59:51;27.80;91.10
14995;DHT22;7593;49.006;8.372;2023-06-26T08:02:17;27.90;91.20
14995;DHT22;7593;49.006;8.372;2023-06-26T08:04:44;28.00;91.20
14995;DHT22;7593;49.006;8.372;2023-06-26T08:07:11;28.10;91.20
14995;DHT22;7593;49.006;8.372;2023-06-26T08:09:39;28.10;91.30
14995;DHT22;7593;49.006;8.372;2023-06-26T08:12:06;28.20;91.20
14995;DHT22;7593;49.006;8.372;2023-06-26T08:14:33;28.30;91.60
14995;DHT22;7593;49.006;8.372;2023-06-26T08:17:01;28.60;91.50
14995;DHT22;7593;49.006;8.372;2023-06-26T08:19:28;28.60;91.30
14995;DHT22;7593;49.006;8.372;2023-06-26T08:21:54;28.70;91.20
14995;DHT22;7593;49.006;8.372;2023-06-26T08:24:21;28.50;91.40
14995;DHT22;7593;49.006;8.372;2023-06-26T08:26:48;28.20;91.80
14995;DHT22;7593;49.006;8.372;2023-06-26T08:29:15;28.00;92.20
14995;DHT22;7593;49.006;8.372;2023-06-26T08:31:42;27.90;92.60
14995;DHT22;7593;49.006;8.372;2023-06-26T08:34:10;28.20;92.90
14995;DHT22;7593;49.006;8.372;2023-06-26T08:36:38;28.20;92.20
14995;DHT22;7593;49.006;8.372;2023-06-26T08:39:05;28.30;91.70
14995;DHT22;7593;49.006;8.372;2023-06-26T08:41:34;28.00;91.90
14995;DHT22;7593;49.006;8.372;2023-06-26T08:44:01;27.80;92.20
14995;DHT22;7593;49.006;8.372;2023-06-26T08:46:28;27.80;92.50
14995;DHT22;7593;49.006;8.372;2023-06-26T08:48:57;27.80;92.70
14995;DHT22;7593;49.006;8.372;2023-06-26T08:51:28;27.80;92.90
14995;DHT22;7593;49.006;8.372;2023-06-26T08:53:57;27.70;93.10
14995;DHT22;7593;49.006;8.372;2023-06-26T08:56:25;27.60;93.10
14995;DHT22;7593;49.006;8.372;2023-06-26T08:58:53;27.50;93.40
14995;DHT22;7593;49.006;8.372;2023-06-26T09:01:21;27.50;93.10
14995;DHT22;7593;49.006;8.372;2023-06-26T09:03:50;27.90;93.10
14995;DHT22;7593;49.006;8.372;2023-06-26T09:06:17;28.20;92.50
14995;DHT22;7593;49.006;8.372;2023-06-26T09:08:45;28.40;92.50
14995;DHT22;7593;49.006;8.372;2023-06-26T09:11:12;28.30;92.30
14995;DHT22;7593;49.006;8.372;2023-06-26T09:13:39;28.30;92.30
14995;DHT22;7593;49.006;8.372;2023-06-26T09:16:07;28.30;92.30
14995;DHT22;7593;49.006;8.372;2023-06-26T09:18:34;28.30;92.30
14995;DHT22;7593;49.006;8.372;2023-06-26T09:21:06;28.20;92.60
14995;DHT22;7593;49.006;8.372;2023-06-26T09:23:34;28.30;92.70
14995;DHT22;7593;49.006;8.372;2023-06-26T09:26:03;28.40;92.60
14995;DHT22;7593;49.006;8.372;2023-06-26T09:28:31;28.50;92.60
14995;DHT22;7593;49.006;8.372;2023-06-26T09:31:01;28.40;92.70
14995;DHT22;7593;49.006;8.372;2023-06-26T09:33:33;28.00;93.10
14995;DHT22;7593;49.006;8.372;2023-06-26T09:36:01;28.00;93.50
14995;DHT22;7593;49.006;8.372;2023-06-26T09:38:28;28.00;93.30
14995;DHT22;7593;49.006;8.372;2023-06-26T09:40:55;28.00;93.40
14995;DHT22;7593;49.006;8.372;2023-06-26T09:43:23;28.10;93.50
14995;DHT22;7593;49.006;8.372;2023-06-26T09:45:50;28.10;93.80
14995;DHT22;7593;49.006;8.372;2023-06-26T09:48:17;28.10;93.80
14995;DHT22;7593;49.006;8.372;2023-06-26T09:50:43;28.10;94.00
14995;DHT22;7593;49.006;8.372;2023-06-26T09:53:11;28.30;93.80
14995;DHT22;7593;49.006;8.372;2023-06-26T09:55:39;28.40;93.70
14995;DHT22;7593;49.006;8.372;2023-06-26T09:58:06;28.60;93.50
14995;DHT22;7593;49.006;8.372;2023-06-26T10:00:34;28.80;93.40
14995;DHT22;7593;49.006;8.372;2023-06-26T10:03:00;28.90;93.10
14995;DHT22;7593;49.006;8.372;2023-06-26T10:05:27;29.20;93.00
14995;DHT22;7593;49.006;8.372;2023-06-26T10:07:55;29.20;92.90
14995;DHT22;7593;49.006;8.372;2023-06-26T10:10:23;29.30;93.00
14995;DHT22;7593;49.006;8.372;2023-06-26T10:12:53;29.50;92.80
14995;DHT22;7593;49.006;8.372;2023-06-26T10:15:21;29.50;92.50
14995;DHT22;7593;49.006;8.372;2023-06-26T10:17:52;29.60;92.50
14995;DHT22;7593;49.006;8.372;2023-06-26T10:20:22;29.60;92.50
14995;DHT22;7593;49.006;8.372;2023-06-26T10:22:49;29.60;92.60
14995;DHT22;7593;49.006;8.372;2023-06-26T10:25:18;29.70;92.20
14995;DHT22;7593;49.006;8.372;2023-06-26T10:27:49;29.90;92.20
14995;DHT22;7593;49.006;8.372;2023-06-26T10:30:20;30.00;92.10
14995;DHT22;7593;49.006;8.372;2023-06-26T10:32:51;30.20;91.80
14995;DHT22;7593;49.006;8.372;2023-06-26T10:35:18;30.30;91.20
14995;DHT22;7593;49.006;8.372;2023-06-26T10:37:47;30.40;91.00
14995;DHT22;7593;49.006;8.372;2023-06-26T10:40:21;30.20;91.00
14995;DHT22;7593;49.006;8.372;2023-06-26T10:42:48;30.20;91.10
14995;DHT22;7593;49.006;8.372;2023-06-26T10:45:16;30.50;90.90
14995;DHT22;7593;49.006;8.372;2023-06-26T10:47:45;30.60;90.40
14995;DHT22;7593;49.006;8.372;2023-06-26T10:50:23;30.50;90.20
14995;DHT22;7593;49.006;8.372;2023-06-26T10:53:10;30.50;90.40
14995;DHT22;7593;49.006;8.372;2023-06-26T10:55:41;30.60;90.20
14995;DHT22;7593;49.006;8.372;2023-06-26T10:58:26;30.90;90.00
14995;DHT22;7593;49.006;8.372;2023-06-26T11:01:14;31.30;89.00
14995;DHT22;7593;49.006;8.372;2023-06-26T11:03:41;31.40;88.60
14995;DHT22;7593;49.006;8.372;2023-06-26T11:06:13;31.30;87.50
14995;DHT22;7593;49.006;8.372;2023-06-26T11:08:47;31.20;87.80
14995;DHT22;7593;49.006;8.372;2023-06-26T11:11:15;31.10;88.30
14995;DHT22;7593;49.006;8.372;2023-06-26T11:13:43;31.20;88.20
14995;DHT22;7593;49.006;8.372;2023-06-26T11:16:11;31.30;87.90
14995;DHT22;7593;49.006;8.372;2023-06-26T11:18:38;31.30;86.80
14995;DHT22;7593;49.006;8.372;2023-06-26T11:21:06;31.20;85.70
14995;DHT22;7593;49.006;8.372;2023-06-26T11:23:35;31.20;84.70
14995;DHT22;7593;49.006;8.372;2023-06-26T11:26:15;31.10;85.10
14995;DHT22;7593;49.006;8.372;2023-06-26T11:28:49;30.80;85.70
14995;DHT22;7593;49.006;8.372;2023-06-26T11:31:27;30.80;85.20
14995;DHT22;7593;49.006;8.372;2023-06-26T11:33:55;30.90;84.40
14995;DHT22;7593;49.006;8.372;2023-06-26T11:36:23;30.90;84.50
14995;DHT22;7593;49.006;8.372;2023-06-26T11:38:54;30.90;83.40
14995;DHT22;7593;49.006;8.372;2023-06-26T11:41:21;31.00;84.00
14995;DHT22;7593;49.006;8.372;2023-06-26T11:43:49;31.10;83.50
14995;DHT22;7593;49.006;8.372;2023-06-26T11:46:16;30.90;83.20
14995;DHT22;7593;49.006;8.372;2023-06-26T11:48:43;31.30;83.20
14995;DHT22;7593;49.006;8.372;2023-06-26T11:51:12;31.70;80.90
14995;DHT22;7593;49.006;8.372;2023-06-26T11:53:39;31.70;80.20
14995;DHT22;7593;49.006;8.372;2023-06-26T11:56:12;32.00;79.70
14995;DHT22;7593;49.006;8.372;2023-06-26T11:58:58;32.20;78.70
14995;DHT22;7593;49.006;8.372;2023-06-26T12:01:27;32.20;77.40
14995;DHT22;7593;49.006;8.372;2023-06-26T12:03:59;32.00;76.80
14995;DHT22;7593;49.006;8.372;2023-06-26T12:06:27;31.70;77.00
14995;DHT22;7593;49.006;8.372;2023-06-26T12:08:55;32.00;77.60
14995;DHT22;7593;49.006;8.372;2023-06-26T12:11:23;32.10;76.00
14995;DHT22;7593;49.006;8.372;2023-06-26T12:13:51;32.40;75.40
14995;DHT22;7593;49.006;8.372;2023-06-26T12:16:18;32.60;73.80
14995;DHT22;7593;49.006;8.372;2023-06-26T12:18:45;32.50;73.50
14995;DHT22;7593;49.006;8.372;2023-06-26T12:21:33;32.90;73.40
14995;DHT22;7593;49.006;8.372;2023-06-26T12:24:13;33.30;71.20
14995;DHT22;7593;49.006;8.372;2023-06-26T12:26:43;33.20;70.60
14995;DHT22;7593;49.006;8.372;2023-06-26T12:29:11;33.30;70.00
14995;DHT22;7593;49.006;8.372;2023-06-26T12:31:40;33.40;69.30
14995;DHT22;7593;49.006;8.372;2023-06-26T12:34:09;33.20;69.00
14995;DHT22;7593;49.006;8.372;2023-06-26T12:36:40;32.80;68.90
14995;DHT22;7593;49.006;8.372;2023-06-26T12:39:09;32.70;70.10
14995;DHT22;7593;49.006;8.372;2023-06-26T12:41:45;32.70;70.00
14995;DHT22;7593;49.006;8.372;2023-06-26T12:44:19;32.70;70.30
14995;DHT22;7593;49.006;8.372;2023-06-26T12:46:48;33.00;69.00
14995;DHT22;7593;49.006;8.372;2023-06-26T12:49:15;32.70;68.90
14995;DHT22;7593;49.006;8.372;2023-06-26T12:51:43;32.30;69.30
14995;DHT22;7593;49.006;8.372;2023-06-26T12:54:10;32.30;69.90
14995;DHT22;7593;49.006;8.372;2023-06-26T12:56:36;32.60;69.20
14995;DHT22;7593;49.006;8.372;2023-06-26T12:59:04;32.40;69.30
14995;DHT22;7593;49.006;8.372;2023-06-26T13:01:31;32.40;69.40
14995;DHT22;7593;49.006;8.372;2023-06-26T13:03:58;32.30;69.80
14995;DHT22;7593;49.006;8.372;2023-06-26T13:06:24;32.50;69.00
14995;DHT22;7593;49.006;8.372;2023-06-26T13:08:51;32.80;68.70
14995;DHT22;7593;49.006;8.372;2023-06-26T13:11:18;32.90;68.80
14995;DHT22;7593;49.006;8.372;2023-06-26T13:13:46;33.20;68.10
14995;DHT22;7593;49.006;8.372;2023-06-26T13:16:14;33.60;67.70
14995;DHT22;7593;49.006;8.372;2023-06-26T13:18:41;33.40;66.70
14995;DHT22;7593;49.006;8.372;2023-06-26T13:21:08;33.30;67.10
14995;DHT22;7593;49.006;8.372;2023-06-26T13:23:35;33.60;66.50
14995;DHT22;7593;49.006;8.372;2023-06-26T13:26:02;33.60;66.10
14995;DHT22;7593;49.006;8.372;2023-06-26T13:28:28;33.80;66.50
14995;DHT22;7593;49.006;8.372;2023-06-26T13:30:55;33.90;66.40
14995;DHT22;7593;49.006;8.372;2023-06-26T13:33:23;34.00;65.70
14995;DHT22;7593;49.006;8.372;2023-06-26T13:35:50;33.50;65.10
14995;DHT22;7593;49.006;8.372;2023-06-26T13:38:18;33.20;66.00
14995;DHT22;7593;49.006;8.372;2023-06-26T13:40:45;33.00;66.80
14995;DHT22;7593;49.006;8.372;2023-06-26T13:43:12;33.00;66.50
14995;DHT22;7593;49.006;8.372;2023-06-26T13:45:38;32.90;66.20
14995;DHT22;7593;49.006;8.372;2023-06-26T13:48:05;32.80;66.80
14995;DHT22;7593;49.006;8.372;2023-06-26T13:50:33;32.60;66.80
14995;DHT22;7593;49.006;8.372;2023-06-26T13:53:00;32.70;66.90
14995;DHT22;7593;49.006;8.372;2023-06-26T13:55:28;32.40;68.00
14995;DHT22;7593;49.006;8.372;2023-06-26T13:57:56;32.20;68.60
14995;DHT22;7593;49.006;8.372;2023-06-26T14:00:24;32.20;69.50
14995;DHT22;7593;49.006;8.372;2023-06-26T14:02:51;32.10;69.70
14995;DHT22;7593;49.006;8.372;2023-06-26T14:05:18;32.00;69.20
14995;DHT22;7593;49.006;8.372;2023-06-26T14:07:46;32.60;69.20
14995;DHT22;7593;49.006;8.372;2023-06-26T14:10:13;33.50;67.90
14995;DHT22;7593;49.006;8.372;2023-06-26T14:12:40;33.60;65.80
14995;DHT22;7593;49.006;8.372;2023-06-26T14:15:08;33.80;65.70
14995;DHT22;7593;49.006;8.372;2023-06-26T14:17:35;33.90;65.70
14995;DHT22;7593;49.006;8.372;2023-06-26T14:20:06;33.90;66.00
14995;DHT22;7593;49.006;8.372;2023-06-26T14:22:35;33.50;64.30
14995;DHT22;7593;49.006;8.372;2023-06-26T14:25:04;33.20;66.20
14995;DHT22;7593;49.006;8.372;2023-06-26T14:27:31;32.60;65.20
14995;DHT22;7593;49.006;8.372;2023-06-26T14:29:57;32.20;66.20
14995;DHT22;7593;49.006;8.372;2023-06-26T14:32:24;31.90;66.80
14995;DHT22;7593;49.006;8.372;2023-06-26T14:34:51;32.40;66.50
14995;DHT22;7593;49.006;8.372;2023-06-26T14:37:18;32.40;65.90
14995;DHT22;7593;49.006;8.372;2023-06-26T14:39:44;32.20;65.90
14995;DHT22;7593;49.006;8.372;2023-06-26T14:42:13;32.20;66.70
14995;DHT22;7593;49.006;8.372;2023-06-26T14:44:39;32.30;64.70
14995;DHT22;7593;49.006;8.372;2023-06-26T14:47:06;32.60;64.30
14995;DHT22;7593;49.006;8.372;2023-06-26T14:49:33;32.90;62.90
14995;DHT22;7593;49.006;8.372;2023-06-26T14:51:59;33.00;62.40
14995;DHT22;7593;49.006;8.372;2023-06-26T14:54:26;33.30;60.50
14995;DHT22;7593;49.006;8.372;2023-06-26T14:56:53;33.50;58.90
14995;DHT22;7593;49.006;8.372;2023-06-26T14:59:21;33.70;57.50
14995;DHT22;7593;49.006;8.372;2023-06-26T15:01:48;33.10;58.00
14995;DHT22;7593;49.006;8.372;2023-06-26T15:04:14;32.70;57.10
14995;DHT22;7593;49.006;8.372;2023-06-26T15:06:42;32.30;57.00
14995;DHT22;7593;49.006;8.372;2023-06-26T15:09:08;31.90;57.80
14995;DHT22;7593;49.006;8.372;2023-06-26T15:11:35;31.60;58.60
14995;DHT22;7593;49.006;8.372;2023-06-26T15:14:02;31.30;58.00
14995;DHT22;7593;49.006;8.372;2023-06-26T15:16:30;30.90;56.70
14995;DHT22;7593;49.006;8.372;2023-06-26T15:18:57;31.00;57.10
14995;DHT22;7593;49.006;8.372;2023-06-26T15:21:24;31.30;55.10
14995;DHT22;7593;49.006;8.372;2023-06-26T15:23:51;31.00;53.70
14995;DHT22;7593;49.006;8.372;2023-06-26T15:26:17;31.20;53.20
14995;DHT22;7593;49.006;8.372;2023-06-26T15:28:44;31.30;51.70
14995;DHT22;7593;49.006;8.372;2023-06-26T15:31:11;30.80;51.80
14995;DHT22;7593;49.006;8.372;2023-06-26T15:33:39;30.70;52.40
14995;DHT22;7593;49.006;8.372;2023-06-26T15:36:06;30.90;52.70
14995;DHT22;7593;49.006;8.372;2023-06-26T15:38:33;31.20;52.80
14995;DHT22;7593;49.006;8.372;2023-06-26T15:40:59;31.90;52.80
14995;DHT22;7593;49.006;8.372;2023-06-26T15:43:27;32.80;51.50
14995;DHT22;7593;49.006;8.372;2023-06-26T15:45:58;32.80;50.80
14995;DHT22;7593;49.006;8.372;2023-06-26T15:48:25;33.40;50.80
14995;DHT22;7593;49.006;8.372;2023-06-26T15:50:55;33.20;50.20